createdAt,value
2018-04-18T00:00:07.372Z,11.70
2018-04-18T00:02:34.510Z,11.70
2018-04-18T00:05:00.712Z,11.50
2018-04-18T00:07:27.341Z,11.50
2018-04-18T00:09:53.591Z,11.50
2018-04-18T00:12:19.818Z,11.50
2018-04-18T00:14:46.031Z,11.40
2018-04-18T00:17:12.272Z,11.30
2018-04-18T00:19:38.497Z,11.20
2018-04-18T00:22:04.743Z,11.30
2018-04-18T00:24:30.980Z,11.20
2018-04-18T00:26:57.227Z,11.10
2018-04-18T00:29:23.414Z,11.20
2018-04-18T00:31:50.069Z,11.30
2018-04-18T00:34:16.344Z,11.30
2018-04-18T00:36:42.553Z,11.40
2018-04-18T00:39:08.779Z,11.20
2018-04-18T00:41:34.996Z,11.10
2018-04-18T00:44:01.260Z,11.20
2018-04-18T00:46:27.491Z,11.30
2018-04-18T00:48:53.753Z,11.20
2018-04-18T00:51:19.968Z,11.20
2018-04-18T00:53:46.585Z,11.20
2018-04-18T00:56:12.827Z,11.20
2018-04-18T00:58:39.054Z,11.20
2018-04-18T01:01:05.288Z,11.20
2018-04-18T01:03:31.508Z,11.20
2018-04-18T01:05:57.735Z,11.10
2018-04-18T01:08:23.970Z,11.00
2018-04-18T01:10:50.575Z,11.00
2018-04-18T01:13:16.818Z,11.00
2018-04-18T01:15:43.024Z,10.90
2018-04-18T01:18:09.286Z,10.80
2018-04-18T01:20:35.531Z,10.80
2018-04-18T01:23:02.109Z,10.60
2018-04-18T01:25:28.357Z,10.60
2018-04-18T01:27:54.611Z,10.60
2018-04-18T01:30:20.825Z,10.70
2018-04-18T01:32:47.080Z,10.70
2018-04-18T01:35:13.687Z,10.70
2018-04-18T01:37:39.898Z,10.70
2018-04-18T01:40:06.134Z,10.80
2018-04-18T01:42:32.387Z,10.70
2018-04-18T01:44:59.471Z,10.70
2018-04-18T01:47:25.721Z,10.60
2018-04-18T01:49:52.015Z,10.60
2018-04-18T01:52:18.268Z,10.60
2018-04-18T01:54:44.521Z,10.50
2018-04-18T01:57:10.727Z,10.40
2018-04-18T01:59:36.923Z,10.40
2018-04-18T02:02:03.178Z,10.40
2018-04-18T02:04:29.388Z,10.40
2018-04-18T02:06:56.464Z,10.40
2018-04-18T02:09:22.704Z,10.30
2018-04-18T02:11:48.967Z,10.30
2018-04-18T02:14:15.990Z,10.30
2018-04-18T02:16:42.217Z,10.30
2018-04-18T02:19:09.293Z,10.20
2018-04-18T02:21:35.582Z,10.20
2018-04-18T02:24:01.807Z,10.20
2018-04-18T02:26:28.005Z,10.10
2018-04-18T02:28:54.267Z,9.90
2018-04-18T02:31:21.137Z,9.90
2018-04-18T02:33:47.407Z,9.90
2018-04-18T02:36:13.636Z,9.80
2018-04-18T02:38:39.901Z,9.70
2018-04-18T02:41:06.155Z,9.40
2018-04-18T02:43:32.390Z,9.50
2018-04-18T02:45:58.971Z,9.60
2018-04-18T02:48:25.243Z,9.60
2018-04-18T02:50:51.501Z,9.60
2018-04-18T02:53:18.069Z,9.40
2018-04-18T02:55:45.306Z,9.40
2018-04-18T02:58:11.514Z,9.50
2018-04-18T03:00:37.752Z,9.40
2018-04-18T03:03:04.007Z,9.50
2018-04-18T03:05:30.213Z,9.50
2018-04-18T03:07:56.419Z,9.50
2018-04-18T03:10:22.662Z,9.50
2018-04-18T03:12:48.877Z,9.50
2018-04-18T03:15:15.481Z,9.50
2018-04-18T03:17:41.709Z,9.50
2018-04-18T03:20:08.987Z,9.60
2018-04-18T03:22:35.203Z,9.60
2018-04-18T03:25:01.487Z,9.60
2018-04-18T03:27:27.685Z,9.50
2018-04-18T03:29:53.926Z,9.40
2018-04-18T03:32:20.173Z,9.40
2018-04-18T03:34:46.406Z,9.40
2018-04-18T03:37:12.637Z,9.50
2018-04-18T03:39:38.861Z,9.40
2018-04-18T03:42:05.066Z,9.40
2018-04-18T03:44:31.275Z,9.40
2018-04-18T03:46:57.512Z,9.50
2018-04-18T03:49:23.740Z,9.40
2018-04-18T03:51:49.964Z,9.50
2018-04-18T03:54:17.020Z,9.50
2018-04-18T03:56:45.318Z,9.50
2018-04-18T03:59:13.432Z,9.40
2018-04-18T04:01:39.637Z,9.30
2018-04-18T04:04:05.879Z,9.30
2018-04-18T04:06:32.117Z,9.20
2018-04-18T04:08:58.333Z,9.20
2018-04-18T04:11:25.347Z,9.10
2018-04-18T04:13:52.509Z,9.10
2018-04-18T04:16:30.944Z,9.10
2018-04-18T04:19:09.456Z,9.10
2018-04-18T04:21:47.900Z,9.10
2018-04-18T04:24:26.175Z,9.10
2018-04-18T04:26:52.405Z,9.10
2018-04-18T04:29:18.620Z,9.20
2018-04-18T04:31:44.850Z,9.20
2018-04-18T04:34:11.173Z,9.10
2018-04-18T04:36:38.242Z,9.10
2018-04-18T04:39:04.510Z,9.20
2018-04-18T04:41:31.123Z,9.10
2018-04-18T04:43:57.347Z,9.10
2018-04-18T04:46:23.609Z,9.20
2018-04-18T04:48:50.205Z,9.20
2018-04-18T04:51:16.447Z,9.20
2018-04-18T04:53:42.646Z,9.20
2018-04-18T04:56:08.904Z,9.20
2018-04-18T04:58:35.162Z,9.00
2018-04-18T05:01:01.768Z,9.20
2018-04-18T05:03:28.008Z,9.20
2018-04-18T05:05:54.254Z,9.20
2018-04-18T05:08:20.831Z,9.30
2018-04-18T05:10:47.126Z,9.30
2018-04-18T05:13:13.721Z,9.40
2018-04-18T05:15:39.949Z,9.40
2018-04-18T05:18:06.180Z,9.40
2018-04-18T05:20:32.408Z,9.30
2018-04-18T05:22:58.648Z,9.20
2018-04-18T05:25:24.891Z,9.40
2018-04-18T05:27:51.528Z,9.60
2018-04-18T05:30:18.135Z,9.50
2018-04-18T05:32:44.382Z,9.50
2018-04-18T05:35:10.661Z,9.40
2018-04-18T05:37:36.874Z,9.40
2018-04-18T05:40:03.200Z,9.30
2018-04-18T05:42:29.453Z,9.40
2018-04-18T05:44:55.706Z,9.40
2018-04-18T05:47:22.009Z,9.60
2018-04-18T05:49:48.227Z,9.80
2018-04-18T05:52:14.458Z,10.00
2018-04-18T05:54:40.712Z,10.20
2018-04-18T05:57:06.967Z,10.30
2018-04-18T05:59:33.171Z,10.40
2018-04-18T06:01:59.418Z,10.60
2018-04-18T06:04:25.658Z,10.60
2018-04-18T06:06:51.896Z,10.70
2018-04-18T06:09:18.144Z,10.80
2018-04-18T06:11:44.355Z,10.80
2018-04-18T06:14:10.556Z,11.00
2018-04-18T06:16:36.822Z,11.00
2018-04-18T06:19:03.140Z,11.20
2018-04-18T06:21:29.748Z,11.50
2018-04-18T06:23:55.979Z,11.50
2018-04-18T06:26:22.194Z,11.60
2018-04-18T06:28:48.405Z,11.70
2018-04-18T06:31:14.640Z,11.90
2018-04-18T06:33:41.164Z,12.10
2018-04-18T06:36:07.775Z,12.50
2018-04-18T06:38:34.092Z,12.60
2018-04-18T06:41:00.378Z,12.80
2018-04-18T06:43:26.582Z,12.90
2018-04-18T06:45:52.888Z,13.10
2018-04-18T06:48:19.102Z,13.30
2018-04-18T06:50:45.697Z,13.50
2018-04-18T06:53:11.949Z,13.50
2018-04-18T06:55:38.172Z,13.60
2018-04-18T06:58:04.437Z,13.70
2018-04-18T07:00:30.668Z,13.70
2018-04-18T07:02:56.952Z,13.80
2018-04-18T07:05:23.180Z,14.00
2018-04-18T07:07:49.447Z,14.00
2018-04-18T07:10:16.033Z,14.10
2018-04-18T07:12:42.272Z,14.10
2018-04-18T07:15:08.524Z,14.30
2018-04-18T07:17:34.761Z,14.50
2018-04-18T07:20:01.373Z,14.70
2018-04-18T07:22:27.630Z,14.80
2018-04-18T07:24:53.929Z,14.80
2018-04-18T07:27:21.015Z,14.90
2018-04-18T07:29:47.664Z,15.00
2018-04-18T07:32:13.918Z,15.00
2018-04-18T07:34:40.209Z,15.20
2018-04-18T07:37:06.433Z,15.30
2018-04-18T07:39:32.658Z,15.40
2018-04-18T07:41:59.275Z,15.80
2018-04-18T07:44:25.549Z,15.80
2018-04-18T07:46:51.804Z,15.80
2018-04-18T07:49:18.075Z,16.00
2018-04-18T07:51:44.680Z,16.00
2018-04-18T07:54:10.917Z,16.00
2018-04-18T07:56:37.197Z,16.20
2018-04-18T07:59:03.453Z,16.40
2018-04-18T08:01:30.563Z,16.50
2018-04-18T08:03:56.814Z,16.60
2018-04-18T08:06:23.053Z,16.90
2018-04-18T08:08:49.324Z,17.00
2018-04-18T08:11:15.716Z,17.10
2018-04-18T08:13:41.964Z,17.00
2018-04-18T08:16:08.171Z,16.90
2018-04-18T08:18:34.402Z,16.90
2018-04-18T08:21:01.616Z,17.20
2018-04-18T08:23:27.852Z,17.40
2018-04-18T08:25:54.780Z,17.60
2018-04-18T08:28:21.398Z,17.80
2018-04-18T08:30:47.625Z,17.80
2018-04-18T08:33:13.837Z,18.00
2018-04-18T08:35:40.098Z,18.10
2018-04-18T08:38:06.694Z,18.40
2018-04-18T08:40:32.911Z,18.40
2018-04-18T08:42:59.173Z,18.60
2018-04-18T08:45:25.394Z,18.70
2018-04-18T08:47:51.635Z,18.70
2018-04-18T08:50:17.856Z,18.90
2018-04-18T08:52:44.120Z,19.00
2018-04-18T08:55:10.327Z,19.20
2018-04-18T08:57:36.953Z,19.50
2018-04-18T09:00:03.266Z,19.50
2018-04-18T09:02:29.525Z,19.60
2018-04-18T09:04:55.740Z,19.40
2018-04-18T09:07:22.017Z,19.60
2018-04-18T09:09:48.335Z,19.80
2018-04-18T09:12:14.502Z,19.90
2018-04-18T09:14:40.744Z,20.00
2018-04-18T09:17:06.971Z,20.10
2018-04-18T09:19:33.224Z,20.20
2018-04-18T09:21:59.819Z,20.70
2018-04-18T09:24:26.050Z,20.70
2018-04-18T09:26:52.304Z,20.90
2018-04-18T09:29:18.537Z,21.10
2018-04-18T09:31:45.126Z,21.30
2018-04-18T09:34:11.364Z,21.30
2018-04-18T09:36:37.580Z,21.40
2018-04-18T09:39:03.822Z,21.60
2018-04-18T09:41:30.072Z,21.70
2018-04-18T09:43:56.306Z,21.80
2018-04-18T09:46:22.536Z,21.70
2018-04-18T09:48:48.773Z,21.90
2018-04-18T09:51:15.369Z,22.20
2018-04-18T09:53:41.573Z,22.30
2018-04-18T09:56:07.813Z,21.90
2018-04-18T09:58:34.044Z,21.90
2018-04-18T10:01:00.258Z,22.20
2018-04-18T10:03:26.521Z,22.40
2018-04-18T10:05:52.759Z,22.70
2018-04-18T10:08:18.993Z,22.90
2018-04-18T10:10:45.207Z,23.10
2018-04-18T10:13:11.468Z,23.40
2018-04-18T10:15:38.088Z,23.50
2018-04-18T10:18:04.284Z,23.50
2018-04-18T10:20:30.484Z,23.60
2018-04-18T10:22:56.843Z,23.80
2018-04-18T10:25:23.440Z,24.40
2018-04-18T10:27:49.674Z,24.50
2018-04-18T10:30:15.940Z,24.70
2018-04-18T10:32:42.173Z,25.10
2018-04-18T10:35:08.460Z,25.30
2018-04-18T10:37:35.682Z,25.40
2018-04-18T10:40:01.973Z,25.60
2018-04-18T10:42:28.218Z,26.20
2018-04-18T10:44:54.471Z,26.60
2018-04-18T10:47:20.756Z,27.30
2018-04-18T10:49:47.004Z,28.40
2018-04-18T10:52:13.276Z,29.70
2018-04-18T10:54:39.549Z,30.50
2018-04-18T10:57:05.787Z,31.60
2018-04-18T10:59:32.983Z,32.50
2018-04-18T11:01:59.228Z,33.80
2018-04-18T11:04:25.536Z,34.50
2018-04-18T11:06:51.782Z,35.60
2018-04-18T11:09:18.508Z,36.60
2018-04-18T11:11:44.748Z,37.00
2018-04-18T11:14:10.966Z,37.00
2018-04-18T11:16:37.539Z,37.50
2018-04-18T11:19:03.783Z,37.50
2018-04-18T11:21:29.990Z,38.10
2018-04-18T11:23:56.233Z,39.10
2018-04-18T11:26:22.477Z,39.80
2018-04-18T11:28:48.691Z,40.00
2018-04-18T11:31:15.060Z,40.10
2018-04-18T11:33:41.672Z,42.40
2018-04-18T11:36:07.900Z,42.40
2018-04-18T11:38:34.139Z,43.50
2018-04-18T11:41:01.347Z,44.40
2018-04-18T11:43:27.599Z,45.00
2018-04-18T11:45:53.872Z,45.50
2018-04-18T11:48:20.438Z,46.50
2018-04-18T11:50:46.660Z,46.60
2018-04-18T11:53:12.918Z,47.50
2018-04-18T11:55:40.068Z,48.10
2018-04-18T11:58:06.365Z,48.50
2018-04-18T12:00:32.589Z,48.80
2018-04-18T12:02:58.813Z,49.20
2018-04-18T12:05:25.046Z,49.80
2018-04-18T12:07:51.298Z,50.10
2018-04-18T12:10:17.576Z,50.30
2018-04-18T12:12:51.675Z,51.20
2018-04-18T12:15:17.959Z,51.20
2018-04-18T12:17:44.153Z,51.30
2018-04-18T12:20:10.727Z,51.50
2018-04-18T12:22:37.649Z,51.50
2018-04-18T12:25:03.945Z,51.80
2018-04-18T12:27:30.203Z,51.50
2018-04-18T12:29:56.821Z,50.80
2018-04-18T12:32:23.411Z,51.40
2018-04-18T12:34:49.678Z,51.40
2018-04-18T12:37:15.913Z,52.60
2018-04-18T12:39:42.116Z,53.60
2018-04-18T12:42:08.345Z,53.60
2018-04-18T12:44:34.585Z,53.40
2018-04-18T12:47:00.866Z,53.10
2018-04-18T12:49:27.639Z,53.20
2018-04-18T12:51:53.899Z,53.40
2018-04-18T12:54:20.497Z,53.30
2018-04-18T12:56:46.716Z,53.30
2018-04-18T12:59:12.910Z,53.80
2018-04-18T13:01:39.197Z,54.00
2018-04-18T13:04:05.455Z,53.90
2018-04-18T13:06:32.094Z,54.90
2018-04-18T13:08:58.733Z,54.80
2018-04-18T13:11:25.413Z,54.90
2018-04-18T13:13:51.673Z,54.90
2018-04-18T13:16:17.932Z,54.50
2018-04-18T13:18:44.541Z,54.20
2018-04-18T13:21:10.826Z,54.30
2018-04-18T13:23:37.061Z,54.50
2018-04-18T13:26:03.320Z,54.90
2018-04-18T13:28:29.580Z,54.80
2018-04-18T13:30:56.200Z,54.90
2018-04-18T13:33:22.821Z,55.50
2018-04-18T13:35:49.123Z,55.50
2018-04-18T13:38:15.412Z,55.30
2018-04-18T13:40:41.705Z,54.80
2018-04-18T13:43:07.942Z,54.20
2018-04-18T13:45:34.219Z,54.00
2018-04-18T13:48:00.528Z,54.50
2018-04-18T13:50:26.761Z,54.40
2018-04-18T13:52:53.027Z,54.80
2018-04-18T13:55:19.304Z,55.40
2018-04-18T13:57:45.923Z,55.60
2018-04-18T14:00:12.842Z,55.60
2018-04-18T14:02:39.092Z,56.00
2018-04-18T14:05:05.335Z,56.60
2018-04-18T14:07:31.581Z,56.90
2018-04-18T14:09:57.796Z,57.10
2018-04-18T14:12:24.035Z,56.60
2018-04-18T14:14:50.290Z,55.10
2018-04-18T14:17:16.528Z,54.40
2018-04-18T14:19:42.781Z,54.30
2018-04-18T14:22:09.004Z,54.40
2018-04-18T14:24:35.223Z,54.10
2018-04-18T14:27:01.469Z,54.10
2018-04-18T14:29:28.202Z,54.40
2018-04-18T14:31:54.510Z,54.20
2018-04-18T14:34:20.669Z,54.30
2018-04-18T14:36:46.941Z,54.30
2018-04-18T14:39:13.222Z,54.00
2018-04-18T14:41:39.488Z,53.40
2018-04-18T14:44:06.123Z,52.70
2018-04-18T14:46:32.759Z,53.00
2018-04-18T14:48:59.362Z,53.30
2018-04-18T14:51:25.648Z,53.30
2018-04-18T14:53:51.967Z,53.30
2018-04-18T14:56:18.919Z,53.20
2018-04-18T14:58:45.222Z,52.90
2018-04-18T15:01:11.458Z,52.10
2018-04-18T15:03:37.718Z,51.70
2018-04-18T15:06:03.931Z,51.40
2018-04-18T15:08:30.149Z,50.70
2018-04-18T15:10:56.392Z,49.90
2018-04-18T15:13:22.659Z,49.80
2018-04-18T15:15:48.918Z,50.10
2018-04-18T15:18:15.163Z,50.20
2018-04-18T15:20:41.761Z,49.80
2018-04-18T15:23:08.034Z,49.80
2018-04-18T15:25:34.297Z,48.70
2018-04-18T15:28:00.557Z,48.60
2018-04-18T15:30:26.781Z,48.20
2018-04-18T15:32:53.085Z,48.30
2018-04-18T15:35:19.371Z,47.60
2018-04-18T15:37:46.028Z,46.90
2018-04-18T15:40:12.321Z,46.90
2018-04-18T15:42:38.551Z,46.00
2018-04-18T15:45:04.862Z,44.20
2018-04-18T15:47:31.163Z,42.50
2018-04-18T15:49:57.431Z,41.60
2018-04-18T15:52:23.696Z,41.10
2018-04-18T15:54:49.995Z,40.50
2018-04-18T15:57:16.322Z,39.70
2018-04-18T15:59:42.574Z,38.70
2018-04-18T16:02:09.465Z,37.80
2018-04-18T16:04:35.747Z,36.40
2018-04-18T16:07:02.391Z,34.90
2018-04-18T16:09:29.070Z,34.30
2018-04-18T16:11:55.317Z,34.30
2018-04-18T16:14:21.540Z,33.80
2018-04-18T16:16:47.788Z,33.50
2018-04-18T16:19:14.023Z,33.50
2018-04-18T16:21:40.317Z,33.80
2018-04-18T16:24:06.570Z,34.90
2018-04-18T16:26:32.833Z,36.00
2018-04-18T16:29:00.237Z,35.70
2018-04-18T16:31:26.455Z,35.70
2018-04-18T16:33:52.687Z,34.70
2018-04-18T16:36:18.926Z,33.10
2018-04-18T16:38:45.230Z,31.70
2018-04-18T16:41:11.462Z,30.60
2018-04-18T16:43:37.674Z,29.50
2018-04-18T16:46:03.918Z,28.60
2018-04-18T16:48:30.185Z,27.90
2018-04-18T16:50:56.461Z,27.40
2018-04-18T16:53:22.727Z,27.00
2018-04-18T16:55:48.972Z,26.60
2018-04-18T16:58:15.244Z,26.40
2018-04-18T17:00:41.481Z,26.10
2018-04-18T17:03:07.734Z,25.80
2018-04-18T17:05:34.008Z,25.60
2018-04-18T17:08:00.227Z,25.50
2018-04-18T17:10:26.493Z,25.30
2018-04-18T17:12:52.787Z,25.10
2018-04-18T17:15:19.048Z,24.90
2018-04-18T17:17:45.391Z,24.70
2018-04-18T17:20:11.643Z,24.60
2018-04-18T17:22:37.871Z,24.60
2018-04-18T17:25:04.107Z,24.40
2018-04-18T17:27:31.158Z,24.30
2018-04-18T17:29:57.440Z,24.10
2018-04-18T17:32:23.713Z,24.00
2018-04-18T17:34:49.981Z,23.80
2018-04-18T17:37:16.594Z,23.50
2018-04-18T17:39:42.840Z,23.50
2018-04-18T17:42:09.461Z,23.30
2018-04-18T17:44:35.749Z,23.30
2018-04-18T17:47:02.080Z,23.10
2018-04-18T17:49:28.378Z,23.00
2018-04-18T17:51:54.644Z,22.80
2018-04-18T17:54:20.966Z,22.50
2018-04-18T17:56:47.553Z,22.40
2018-04-18T17:59:14.223Z,22.20
2018-04-18T18:01:40.494Z,22.20
2018-04-18T18:04:06.741Z,22.10
2018-04-18T18:06:33.030Z,21.90
2018-04-18T18:08:59.298Z,21.70
2018-04-18T18:11:25.600Z,21.60
2018-04-18T18:13:51.916Z,21.50
2018-04-18T18:16:18.156Z,21.50
2018-04-18T18:18:44.426Z,21.40
2018-04-18T18:21:11.086Z,21.10
2018-04-18T18:23:37.365Z,21.20
2018-04-18T18:26:03.642Z,21.10
2018-04-18T18:28:29.930Z,21.00
2018-04-18T18:30:56.251Z,20.90
2018-04-18T18:33:22.491Z,20.70
2018-04-18T18:35:48.760Z,20.60
2018-04-18T18:38:15.461Z,20.40
2018-04-18T18:40:41.780Z,20.50
2018-04-18T18:43:08.834Z,20.30
2018-04-18T18:45:35.104Z,20.10
2018-04-18T18:48:01.768Z,20.00
2018-04-18T18:50:28.643Z,19.90
2018-04-18T18:52:54.911Z,19.90
2018-04-18T18:55:21.236Z,19.70
2018-04-18T18:57:47.514Z,19.60
2018-04-18T19:00:13.779Z,19.50
2018-04-18T19:02:40.075Z,19.30
2018-04-18T19:05:06.428Z,19.20
2018-04-18T19:07:32.703Z,19.20
2018-04-18T19:09:58.990Z,19.10
2018-04-18T19:12:25.282Z,19.00
2018-04-18T19:14:51.509Z,18.90
2018-04-18T19:17:17.779Z,18.80
2018-04-18T19:19:45.034Z,18.70
2018-04-18T19:22:11.711Z,18.50
2018-04-18T19:24:37.975Z,18.50
2018-04-18T19:27:04.260Z,18.40
2018-04-18T19:29:31.517Z,18.30
2018-04-18T19:31:57.762Z,18.30
2018-04-18T19:34:24.025Z,18.10
2018-04-18T19:36:50.326Z,18.10
2018-04-18T19:39:16.655Z,18.10
2018-04-18T19:41:42.929Z,18.00
2018-04-18T19:44:09.227Z,18.00
2018-04-18T19:46:35.551Z,17.90
2018-04-18T19:49:01.815Z,17.80
2018-04-18T19:51:28.103Z,17.60
2018-04-18T19:53:54.361Z,17.40
2018-04-18T19:56:20.882Z,17.30
2018-04-18T19:58:47.205Z,17.30
2018-04-18T20:01:13.545Z,17.30
2018-04-18T20:03:39.753Z,17.30
2018-04-18T20:06:06.066Z,17.10
2018-04-18T20:08:32.374Z,17.00
2018-04-18T20:10:58.648Z,16.90
2018-04-18T20:13:25.041Z,16.90
2018-04-18T20:15:51.311Z,16.80
2018-04-18T20:18:17.625Z,16.90
2018-04-18T20:20:43.911Z,16.90
2018-04-18T20:23:10.158Z,16.80
2018-04-18T20:25:36.392Z,16.90
2018-04-18T20:28:02.662Z,16.80
2018-04-18T20:30:29.592Z,16.80
2018-04-18T20:32:55.864Z,16.70
2018-04-18T20:35:22.136Z,16.70
2018-04-18T20:37:48.434Z,16.60
2018-04-18T20:40:15.090Z,16.40
2018-04-18T20:42:41.373Z,16.40
2018-04-18T20:45:14.570Z,16.40
2018-04-18T20:47:40.767Z,16.30
2018-04-18T20:50:07.009Z,16.10
2018-04-18T20:52:33.280Z,16.00
2018-04-18T20:54:59.564Z,15.90
2018-04-18T20:57:25.836Z,15.80
2018-04-18T20:59:52.064Z,15.80
2018-04-18T21:02:18.401Z,15.80
2018-04-18T21:04:44.647Z,15.80
2018-04-18T21:07:11.052Z,15.70
2018-04-18T21:09:37.334Z,15.80
2018-04-18T21:12:03.596Z,15.70
2018-04-18T21:14:29.844Z,15.70
2018-04-18T21:16:56.129Z,15.70
2018-04-18T21:19:23.349Z,15.70
2018-04-18T21:21:49.568Z,15.70
2018-04-18T21:24:16.165Z,15.80
2018-04-18T21:26:42.467Z,15.80
2018-04-18T21:29:08.685Z,15.70
2018-04-18T21:31:34.907Z,15.70
2018-04-18T21:34:01.224Z,15.60
2018-04-18T21:36:27.476Z,15.60
2018-04-18T21:38:53.741Z,15.50
2018-04-18T21:41:20.001Z,15.60
2018-04-18T21:43:46.650Z,15.50
2018-04-18T21:46:12.914Z,15.50
2018-04-18T21:48:39.214Z,15.40
2018-04-18T21:51:05.461Z,15.40
2018-04-18T21:53:31.716Z,15.40
2018-04-18T21:55:57.989Z,15.40
2018-04-18T21:58:24.589Z,15.40
2018-04-18T22:00:51.161Z,15.40
2018-04-18T22:03:17.537Z,15.40
2018-04-18T22:05:43.790Z,15.40
2018-04-18T22:08:10.012Z,15.30
2018-04-18T22:10:36.291Z,15.30
2018-04-18T22:13:02.521Z,15.30
2018-04-18T22:15:28.758Z,15.30
2018-04-18T22:17:54.996Z,15.20
2018-04-18T22:20:21.250Z,15.10
2018-04-18T22:22:47.494Z,15.00
2018-04-18T22:25:13.719Z,15.00
2018-04-18T22:27:40.997Z,14.90
2018-04-18T22:30:07.986Z,15.00
2018-04-18T22:32:34.233Z,14.90
2018-04-18T22:35:00.460Z,14.90
2018-04-18T22:37:26.680Z,14.90
2018-04-18T22:39:52.930Z,14.90
2018-04-18T22:42:19.142Z,14.90
2018-04-18T22:44:45.438Z,14.90
2018-04-18T22:47:11.751Z,14.90
2018-04-18T22:49:37.970Z,14.90
2018-04-18T22:52:04.220Z,14.90
2018-04-18T22:54:30.474Z,14.80
2018-04-18T22:56:56.691Z,14.70
2018-04-18T22:59:22.895Z,14.70
2018-04-18T23:01:49.149Z,14.70
2018-04-18T23:04:15.379Z,14.70
2018-04-18T23:06:41.603Z,14.60
2018-04-18T23:09:07.909Z,14.60
2018-04-18T23:11:34.139Z,14.60
2018-04-18T23:14:00.389Z,14.50
2018-04-18T23:16:26.639Z,14.50
2018-04-18T23:18:52.899Z,14.40
2018-04-18T23:21:19.136Z,14.40
2018-04-18T23:23:45.411Z,14.40
2018-04-18T23:26:11.648Z,14.30
2018-04-18T23:28:37.847Z,14.30
2018-04-18T23:31:04.083Z,14.40
2018-04-18T23:33:30.295Z,14.40
2018-04-18T23:35:56.495Z,14.30
2018-04-18T23:38:22.734Z,14.30
2018-04-18T23:40:49.335Z,14.30
2018-04-18T23:43:15.557Z,14.30
2018-04-18T23:45:41.786Z,14.30
2018-04-18T23:48:08.813Z,14.30
2018-04-18T23:50:35.057Z,14.30
2018-04-18T23:53:01.305Z,14.20
2018-04-18T23:55:28.344Z,14.20
2018-04-18T23:57:54.546Z,14.30
